Time;durP1;ratioP1;P1;durP2;ratioP2;P2;SDS_P1;SDS_P2;PMS_P1;PMS_P2;Temp;Humidity;BMP_temperature;BMP_pressure;BME280_temperature;BME280_humidity;BME280_pressure;Samples;Min_cycle;Max_cycle;Signal;HPM_P1;HPM_P2
2022/01/23 00:02:42;;;;;;;;;;;18.60;41.60;;;;;;5087886;27;43546;-75
2022/01/23 00:05:08;;;;;;;;;;;18.60;41.60;;;;;;5087478;27;43027;-75
2022/01/23 00:07:34;;;;;;;;;;;18.60;41.60;;;;;;5082733;27;42967;-75
2022/01/23 00:10:04;;;;;;;;;;;18.60;41.60;;;;;;5085746;27;43078;-76
2022/01/23 00:12:33;;;;;;;;;;;18.60;41.60;;;;;;5085809;27;44036;-79
2022/01/23 00:17:43;;;;;;;;;;;18.60;41.60;;;;;;5064561;28;42916;-74
2022/01/23 00:20:11;;;;;;;;;;;18.60;41.70;;;;;;5075255;27;42913;-75
2022/01/23 00:22:42;;;;;;;;;;;18.60;41.50;;;;;;5081984;27;44324;-77
2022/01/23 00:30:39;;;;;;;;;;;18.60;42.00;;;;;;5083711;28;43137;-76
2022/01/23 00:33:06;;;;;;;;;;;18.70;42.30;;;;;;5082887;27;43876;-79
2022/01/23 00:35:32;;;;;;;;;;;18.60;42.30;;;;;;5082274;28;43228;-74
2022/01/23 00:37:57;;;;;;;;;;;18.60;42.70;;;;;;5084396;27;44113;-75
2022/01/23 00:40:24;;;;;;;;;;;18.60;43.40;;;;;;5084799;27;42815;-76
2022/01/23 00:42:49;;;;;;;;;;;18.60;43.60;;;;;;5084890;27;43366;-75
2022/01/23 00:48:12;;;;;;;;;;;19.40;44.30;;;;;;5063988;27;43030;-76
2022/01/23 00:50:39;;;;;;;;;;;18.60;44.40;;;;;;5085265;27;43083;-74
2022/01/23 00:53:08;;;;;;;;;;;18.60;44.40;;;;;;5084532;27;43008;-75
2022/01/23 00:55:34;;;;;;;;;;;18.60;44.60;;;;;;5084824;27;42863;-75
2022/01/23 00:58:00;;;;;;;;;;;18.60;44.80;;;;;;5084499;27;43519;-79
2022/01/23 01:00:26;;;;;;;;;;;18.60;44.80;;;;;;5084727;27;42928;-77
2022/01/23 01:02:51;;;;;;;;;;;18.60;44.70;;;;;;5084696;27;43233;-76
2022/01/23 01:05:17;;;;;;;;;;;18.60;44.80;;;;;;5084280;28;43150;-74
2022/01/23 01:07:42;;;;;;;;;;;18.60;44.90;;;;;;5083532;28;44167;-74
2022/01/23 01:10:14;;;;;;;;;;;18.50;44.80;;;;;;5085262;27;43167;-74
2022/01/23 01:12:45;;;;;;;;;;;18.60;44.80;;;;;;5083940;27;42901;-75
2022/01/23 01:30:11;;;;;;;;;;;18.60;45.00;;;;;;5084169;27;43515;-79
2022/01/23 01:31:47;;;;;;;;;;;18.50;45.00;;;;;;5086571;27;43132;-74
2022/01/23 01:36:46;;;;;;;;;;;18.50;45.30;;;;;;5087210;27;42905;-73
2022/01/23 01:39:12;;;;;;;;;;;18.50;45.30;;;;;;5087218;27;42956;-74
2022/01/23 01:41:39;;;;;;;;;;;18.50;45.30;;;;;;5087455;27;42980;-74
2022/01/23 01:44:04;;;;;;;;;;;18.50;45.30;;;;;;5087573;27;42893;-74
2022/01/23 01:46:30;;;;;;;;;;;18.50;45.40;;;;;;5087560;27;42960;-74
2022/01/23 01:48:56;;;;;;;;;;;18.60;45.50;;;;;;5086759;27;43634;-74
2022/01/23 01:51:23;;;;;;;;;;;18.50;45.40;;;;;;5085429;28;43052;-75
2022/01/23 01:53:52;;;;;;;;;;;18.50;45.50;;;;;;5088079;27;43392;-78
2022/01/23 01:56:18;;;;;;;;;;;18.50;45.60;;;;;;5087820;27;42971;-74
2022/01/23 02:09:23;;;;;;;;;;;18.50;45.80;;;;;;5087731;28;43051;-75
2022/01/23 02:54:58;;;;;;;;;;;18.50;48.00;;;;;;5086432;27;42915;-78
2022/01/23 02:57:50;;;;;;;;;;;18.50;47.70;;;;;;5087712;27;42959;-74
2022/01/23 03:00:19;;;;;;;;;;;18.40;48.00;;;;;;5087036;27;42896;-74
2022/01/23 03:02:47;;;;;;;;;;;18.40;48.30;;;;;;5086900;27;43912;-78
2022/01/23 03:05:23;;;;;;;;;;;18.50;48.30;;;;;;5086748;27;42837;-74
2022/01/23 03:08:17;;;;;;;;;;;18.50;48.10;;;;;;5086258;27;43927;-73
2022/01/23 03:10:47;;;;;;;;;;;18.40;48.20;;;;;;5086443;27;42982;-77
2022/01/23 03:24:22;;;;;;;;;;;18.50;49.40;;;;;;5086061;28;43116;-74
2022/01/23 03:27:04;;;;;;;;;;;18.50;48.90;;;;;;5085577;27;42958;-75
2022/01/23 03:32:29;;;;;;;;;;;18.50;49.60;;;;;;5086362;28;43085;-74
2022/01/23 03:34:54;;;;;;;;;;;18.40;49.50;;;;;;5085619;28;43770;-74
2022/01/23 03:37:20;;;;;;;;;;;18.40;49.80;;;;;;5086562;27;43594;-73
2022/01/23 03:39:46;;;;;;;;;;;18.40;49.90;;;;;;5078138;27;42835;-76
2022/01/23 03:42:11;;;;;;;;;;;18.40;50.00;;;;;;5085603;28;42917;-74
2022/01/23 03:44:41;;;;;;;;;;;18.40;50.60;;;;;;5085850;27;43012;-74
2022/01/23 03:47:31;;;;;;;;;;;18.40;51.20;;;;;;5085735;28;42912;-76
2022/01/23 03:49:57;;;;;;;;;;;18.40;51.10;;;;;;5084044;28;45501;-78
2022/01/23 03:52:24;;;;;;;;;;;18.40;51.50;;;;;;5086659;27;43134;-74
2022/01/23 03:54:49;;;;;;;;;;;18.40;51.70;;;;;;5084915;27;43304;-74
2022/01/23 03:57:15;;;;;;;;;;;18.40;51.80;;;;;;5085354;27;42900;-74
2022/01/23 03:59:41;;;;;;;;;;;18.40;52.10;;;;;;5086161;27;42924;-73
2022/01/23 04:02:06;;;;;;;;;;;18.40;52.30;;;;;;5086045;27;42924;-75
2022/01/23 04:04:39;;;;;;;;;;;18.40;52.30;;;;;;5085673;27;43313;-77
2022/01/23 04:07:16;;;;;;;;;;;18.30;52.20;;;;;;5085196;27;42894;-73
2022/01/23 04:09:49;;;;;;;;;;;18.40;52.40;;;;;;5084445;27;43229;-74
2022/01/23 04:34:10;;;;;;;;;;;18.40;52.00;;;;;;5085472;28;42996;-78
2022/01/23 05:01:17;;;;;;;;;;;18.30;52.50;;;;;;5084319;28;42950;-75
2022/01/23 05:06:27;;;;;;;;;;;18.30;52.90;;;;;;5086583;27;43262;-74
2022/01/23 05:08:52;;;;;;;;;;;18.30;52.90;;;;;;5088468;27;43599;-78
2022/01/23 05:11:18;;;;;;;;;;;18.30;52.90;;;;;;5088285;28;42920;-77
2022/01/23 05:13:44;;;;;;;;;;;18.30;52.70;;;;;;5086170;27;44189;-74
2022/01/23 05:16:10;;;;;;;;;;;18.30;53.00;;;;;;5082585;27;43022;-73
2022/01/23 05:18:36;;;;;;;;;;;18.30;53.10;;;;;;5080097;28;43886;-73
2022/01/23 05:21:25;;;;;;;;;;;18.30;53.30;;;;;;5085111;27;43026;-78
2022/01/23 05:23:51;;;;;;;;;;;18.30;53.30;;;;;;5087386;27;42903;-75
2022/01/23 05:26:16;;;;;;;;;;;18.30;53.30;;;;;;5087294;28;43018;-76
2022/01/23 05:28:42;;;;;;;;;;;18.30;53.20;;;;;;5088009;28;42901;-77
2022/01/23 05:31:07;;;;;;;;;;;18.30;53.50;;;;;;5088174;28;43173;-73
2022/01/23 05:33:33;;;;;;;;;;;18.30;53.50;;;;;;5087525;28;43069;-78
2022/01/23 05:35:58;;;;;;;;;;;18.30;53.50;;;;;;5086199;28;42995;-76
2022/01/23 05:38:24;;;;;;;;;;;18.30;53.60;;;;;;5087076;28;43528;-74
2022/01/23 05:40:57;;;;;;;;;;;18.30;53.50;;;;;;5088040;28;43202;-78
2022/01/23 05:43:23;;;;;;;;;;;18.30;53.60;;;;;;5087710;27;42995;-73
2022/01/23 05:45:49;;;;;;;;;;;18.30;53.30;;;;;;5087578;27;43054;-76
2022/01/23 05:48:15;;;;;;;;;;;18.30;53.50;;;;;;5077318;27;42935;-74
2022/01/23 05:50:41;;;;;;;;;;;18.30;53.70;;;;;;5093409;27;42998;-74
2022/01/23 05:53:06;;;;;;;;;;;18.30;53.60;;;;;;5083185;28;44794;-75
2022/01/23 05:55:32;;;;;;;;;;;18.30;53.60;;;;;;5088041;27;42955;-74
2022/01/23 05:57:57;;;;;;;;;;;18.30;53.70;;;;;;5088061;27;43500;-74
2022/01/23 06:00:23;;;;;;;;;;;18.30;53.60;;;;;;5086413;28;42854;-79
2022/01/23 06:02:48;;;;;;;;;;;18.30;53.70;;;;;;5085474;27;43915;-74
2022/01/23 06:05:14;;;;;;;;;;;18.30;53.80;;;;;;5086365;27;42839;-76
2022/01/23 06:07:41;;;;;;;;;;;18.30;53.90;;;;;;5087003;27;43694;-74
2022/01/23 06:10:07;;;;;;;;;;;18.20;53.60;;;;;;5086917;27;42988;-74
2022/01/23 06:12:33;;;;;;;;;;;18.20;53.90;;;;;;5086143;28;43640;-74
2022/01/23 06:14:58;;;;;;;;;;;18.30;53.80;;;;;;5102905;27;42933;-77
2022/01/23 06:17:24;;;;;;;;;;;18.20;53.90;;;;;;5085837;27;43002;-75
2022/01/23 06:19:50;;;;;;;;;;;18.20;52.90;;;;;;5087106;28;42996;-74
2022/01/23 06:22:15;;;;;;;;;;;18.20;53.80;;;;;;5087574;28;43314;-74
2022/01/23 06:24:46;;;;;;;;;;;18.20;53.40;;;;;;5087378;28;42979;-80
2022/01/23 06:27:12;;;;;;;;;;;18.30;53.40;;;;;;5087543;27;42954;-75
2022/01/23 06:29:38;;;;;;;;;;;18.30;52.90;;;;;;5087094;27;42877;-74
2022/01/23 06:32:04;;;;;;;;;;;18.30;52.70;;;;;;5086212;27;42955;-74
2022/01/23 06:34:30;;;;;;;;;;;18.40;52.80;;;;;;5085675;27;44366;-76
2022/01/23 06:36:56;;;;;;;;;;;18.40;52.80;;;;;;5086553;27;43966;-74
2022/01/23 06:39:22;;;;;;;;;;;18.40;52.70;;;;;;5086347;27;42992;-80
2022/01/23 06:41:47;;;;;;;;;;;18.30;52.40;;;;;;5086656;27;43002;-75
2022/01/23 06:44:13;;;;;;;;;;;18.40;52.90;;;;;;5086058;27;43092;-77
2022/01/23 06:46:41;;;;;;;;;;;18.40;53.00;;;;;;5085836;28;42932;-75
2022/01/23 06:49:08;;;;;;;;;;;18.40;53.00;;;;;;5086343;27;42901;-77
2022/01/23 06:51:33;;;;;;;;;;;18.30;53.00;;;;;;5084552;27;43802;-74
2022/01/23 06:53:59;;;;;;;;;;;18.40;53.30;;;;;;5084663;28;42846;-75
2022/01/23 06:56:24;;;;;;;;;;;18.30;52.80;;;;;;5084812;27;43040;-74
2022/01/23 06:58:50;;;;;;;;;;;18.30;52.90;;;;;;5084630;27;43158;-77
2022/01/23 07:01:16;;;;;;;;;;;18.40;53.20;;;;;;5084856;27;43073;-74
2022/01/23 07:03:41;;;;;;;;;;;18.40;53.20;;;;;;5084928;27;43038;-74
2022/01/23 07:06:07;;;;;;;;;;;18.30;52.70;;;;;;5084176;27;43359;-75
2022/01/23 07:08:32;;;;;;;;;;;18.30;53.10;;;;;;5085670;27;43012;-76
2022/01/23 07:10:58;;;;;;;;;;;18.30;53.10;;;;;;5085086;27;43003;-74
2022/01/23 07:13:24;;;;;;;;;;;18.30;53.00;;;;;;5082650;27;42901;-74
2022/01/23 07:15:50;;;;;;;;;;;18.30;52.90;;;;;;5085291;27;42962;-78
2022/01/23 07:18:16;;;;;;;;;;;18.30;53.20;;;;;;5085980;27;43368;-75
2022/01/23 07:20:42;;;;;;;;;;;18.30;53.30;;;;;;5085538;27;42953;-74
2022/01/23 07:23:07;;;;;;;;;;;18.30;52.90;;;;;;5082415;28;43114;-74
2022/01/23 07:25:33;;;;;;;;;;;18.30;52.80;;;;;;5084720;28;42964;-74
2022/01/23 07:28:00;;;;;;;;;;;18.40;53.60;;;;;;5083255;27;42932;-79
2022/01/23 07:33:10;;;;;;;;;;;18.30;53.10;;;;;;5084751;28;42959;-79
2022/01/23 07:35:36;;;;;;;;;;;18.30;53.80;;;;;;5083722;28;45252;-73
2022/01/23 07:38:01;;;;;;;;;;;18.30;53.10;;;;;;5085393;27;43181;-78
2022/01/23 07:40:27;;;;;;;;;;;18.30;53.20;;;;;;5087879;27;43706;-76
2022/01/23 07:42:53;;;;;;;;;;;18.30;53.60;;;;;;5085587;28;43113;-75
2022/01/23 07:45:18;;;;;;;;;;;18.20;54.50;;;;;;5082359;27;43265;-78
2022/01/23 07:47:44;;;;;;;;;;;18.30;53.70;;;;;;5084572;27;42900;-78
2022/01/23 07:50:09;;;;;;;;;;;18.30;54.10;;;;;;5085551;28;43648;-82
2022/01/23 07:52:36;;;;;;;;;;;18.30;54.20;;;;;;5081330;27;43039;-75
2022/01/23 07:55:06;;;;;;;;;;;15.90;52.60;;;;;;5081163;28;43825;-78
2022/01/23 07:57:32;;;;;;;;;;;18.30;53.90;;;;;;5085240;27;42937;-75
2022/01/23 07:59:57;;;;;;;;;;;18.30;54.20;;;;;;5084422;28;43091;-76
2022/01/23 08:02:23;;;;;;;;;;;18.30;53.70;;;;;;5083446;28;42963;-79
2022/01/23 08:04:49;;;;;;;;;;;18.30;53.80;;;;;;5085113;27;43298;-77
2022/01/23 08:09:56;;;;;;;;;;;18.30;53.60;;;;;;5083673;27;43478;-76
2022/01/23 08:12:22;;;;;;;;;;;18.30;53.90;;;;;;5082786;27;43063;-75
2022/01/23 08:14:50;;;;;;;;;;;18.30;54.50;;;;;;5082707;27;64361;-75
2022/01/23 08:17:16;;;;;;;;;;;18.30;54.20;;;;;;5083363;27;43081;-76
2022/01/23 08:19:42;;;;;;;;;;;18.30;54.40;;;;;;5082677;27;44374;-77
2022/01/23 08:22:07;;;;;;;;;;;18.20;54.50;;;;;;5086928;28;42981;-80
2022/01/23 08:24:33;;;;;;;;;;;18.20;53.90;;;;;;5086501;27;43445;-75
2022/01/23 08:26:58;;;;;;;;;;;18.30;54.60;;;;;;5086043;28;42940;-74
2022/01/23 08:29:24;;;;;;;;;;;18.30;55.20;;;;;;5083613;27;43995;-76
2022/01/23 08:31:50;;;;;;;;;;;18.30;55.20;;;;;;5083788;28;42951;-75
2022/01/23 08:34:15;;;;;;;;;;;18.30;55.00;;;;;;5086044;27;42865;-76
2022/01/23 08:36:41;;;;;;;;;;;18.20;55.20;;;;;;5085057;27;42995;-75
2022/01/23 08:39:06;;;;;;;;;;;18.20;54.80;;;;;;5084136;27;42993;-75
2022/01/23 08:41:50;;;;;;;;;;;18.20;54.50;;;;;;5084529;27;42987;-76
2022/01/23 08:44:17;;;;;;;;;;;15.70;54.00;;;;;;5083693;27;43551;-75
2022/01/23 08:46:42;;;;;;;;;;;17.70;48.00;;;;;;5075627;28;43040;-73
2022/01/23 08:49:08;;;;;;;;;;;16.70;44.50;;;;;;5085101;27;43781;-73
2022/01/23 08:51:33;;;;;;;;;;;16.50;43.10;;;;;;5084755;27;42892;-72
2022/01/23 08:53:59;;;;;;;;;;;16.20;41.90;;;;;;5084680;27;42873;-73
2022/01/23 08:56:25;;;;;;;;;;;16.10;41.00;;;;;;5084858;27;43075;-73
2022/01/23 08:58:51;;;;;;;;;;;16.30;40.60;;;;;;5084177;27;42989;-73
2022/01/23 09:01:16;;;;;;;;;;;16.20;40.00;;;;;;5084177;27;43096;-73
2022/01/23 09:03:42;;;;;;;;;;;13.50;38.10;;;;;;5085869;27;43746;-73
2022/01/23 09:06:08;;;;;;;;;;;16.80;39.80;;;;;;5086356;27;43041;-74
2022/01/23 09:08:37;;;;;;;;;;;16.20;38.90;;;;;;5080241;27;43044;-73
2022/01/23 09:11:10;;;;;;;;;;;16.20;38.50;;;;;;5067009;27;43147;-75
2022/01/23 09:16:06;;;;;;;;;;;16.20;38.00;;;;;;5083971;27;42925;-73
2022/01/23 09:18:32;;;;;;;;;;;16.40;37.80;;;;;;5078309;27;43673;-76
2022/01/23 09:21:02;;;;;;;;;;;16.10;38.50;;;;;;5069560;27;43023;-75
2022/01/23 09:23:28;;;;;;;;;;;16.10;37.90;;;;;;5064941;28;42838;-75
2022/01/23 09:25:56;;;;;;;;;;;15.90;38.10;;;;;;5060426;28;43025;-75
2022/01/23 09:28:30;;;;;;;;;;;15.80;38.10;;;;;;5069761;28;42991;-76
2022/01/23 09:30:56;;;;;;;;;;;15.70;39.00;;;;;;5083092;27;42936;-76
2022/01/23 09:33:21;;;;;;;;;;;15.70;39.10;;;;;;5083167;27;42898;-80
2022/01/23 09:35:47;;;;;;;;;;;15.70;39.30;;;;;;5083189;27;42971;-75
2022/01/23 09:38:12;;;;;;;;;;;15.70;38.90;;;;;;5082659;27;43326;-78
2022/01/23 09:40:39;;;;;;;;;;;16.00;39.30;;;;;;5079301;27;43042;-76
2022/01/23 09:43:06;;;;;;;;;;;15.80;38.80;;;;;;5081710;27;43806;-76
2022/01/23 09:45:32;;;;;;;;;;;16.20;38.90;;;;;;5081980;28;42979;-78
2022/01/23 09:47:59;;;;;;;;;;;16.70;40.10;;;;;;5078317;27;43380;-78
2022/01/23 09:50:25;;;;;;;;;;;17.10;41.00;;;;;;5079286;28;43082;-80
2022/01/23 09:52:52;;;;;;;;;;;17.60;42.50;;;;;;5086045;28;42942;-76
2022/01/23 09:55:19;;;;;;;;;;;17.40;42.50;;;;;;5087883;27;43043;-76
2022/01/23 09:57:48;;;;;;;;;;;17.50;42.50;;;;;;5087225;27;43531;-76
2022/01/23 10:00:16;;;;;;;;;;;17.60;42.50;;;;;;5086611;27;43039;-76
2022/01/23 10:02:42;;;;;;;;;;;17.60;42.40;;;;;;5087086;27;42921;-75
2022/01/23 10:05:08;;;;;;;;;;;17.70;42.50;;;;;;5087853;27;43085;-75
2022/01/23 10:07:38;;;;;;;;;;;17.70;42.40;;;;;;5087881;27;44482;-75
2022/01/23 10:10:11;;;;;;;;;;;17.70;42.50;;;;;;5084884;27;43085;-75
2022/01/23 10:12:48;;;;;;;;;;;17.70;42.50;;;;;;5083162;28;43965;-75
2022/01/23 10:15:14;;;;;;;;;;;17.80;43.10;;;;;;5087249;27;42843;-77
2022/01/23 10:17:39;;;;;;;;;;;17.80;42.50;;;;;;5086977;28;42931;-78
2022/01/23 10:20:06;;;;;;;;;;;17.80;42.60;;;;;;5086204;27;42848;-74
2022/01/23 10:22:33;;;;;;;;;;;17.80;42.70;;;;;;5086086;27;42832;-75
2022/01/23 10:25:09;;;;;;;;;;;17.80;42.60;;;;;;5087759;27;42999;-77
2022/01/23 10:27:50;;;;;;;;;;;17.80;42.60;;;;;;5087823;27;43822;-79
2022/01/23 10:30:17;;;;;;;;;;;17.80;42.70;;;;;;5087708;27;43162;-74
2022/01/23 10:32:54;;;;;;;;;;;17.90;42.70;;;;;;5087299;27;43036;-75
2022/01/23 10:35:20;;;;;;;;;;;17.90;42.70;;;;;;5087028;27;42865;-75
2022/01/23 10:37:46;;;;;;;;;;;17.90;42.70;;;;;;5086449;28;42909;-74
2022/01/23 10:40:24;;;;;;;;;;;17.90;42.70;;;;;;5070691;27;42921;-75
2022/01/23 10:46:39;;;;;;;;;;;17.90;42.80;;;;;;5065325;28;44029;-74
2022/01/23 10:48:40;;;;;;;;;;;17.90;42.70;;;;;;5087187;28;42913;-74
2022/01/23 10:51:12;;;;;;;;;;;17.90;42.80;;;;;;5066554;28;42977;-73
2022/01/23 10:53:55;;;;;;;;;;;17.90;43.00;;;;;;5066294;28;43897;-74
2022/01/23 10:56:21;;;;;;;;;;;17.90;43.00;;;;;;5065531;28;42922;-73
2022/01/23 10:58:55;;;;;;;;;;;17.90;42.90;;;;;;5067475;27;43766;-76
2022/01/23 11:01:21;;;;;;;;;;;18.00;43.00;;;;;;5086717;28;43173;-75
2022/01/23 11:04:02;;;;;;;;;;;17.90;43.00;;;;;;5085325;27;42893;-74
2022/01/23 11:06:27;;;;;;;;;;;18.00;43.00;;;;;;5086104;27;43079;-74
2022/01/23 11:09:05;;;;;;;;;;;18.00;43.10;;;;;;5086241;27;43897;-74
2022/01/23 11:11:44;;;;;;;;;;;18.00;43.10;;;;;;5085302;27;43090;-74
2022/01/23 11:19:43;;;;;;;;;;;18.00;43.10;;;;;;5099139;27;43171;-75
2022/01/23 11:22:36;;;;;;;;;;;18.00;43.70;;;;;;5084801;27;43047;-76
2022/01/23 11:25:04;;;;;;;;;;;18.10;44.20;;;;;;5083668;27;42989;-75
2022/01/23 11:27:32;;;;;;;;;;;18.10;44.20;;;;;;5085432;27;42995;-72
2022/01/23 11:29:57;;;;;;;;;;;18.10;44.10;;;;;;5091021;27;43536;-74
2022/01/23 11:32:25;;;;;;;;;;;18.20;44.50;;;;;;5084068;27;43160;-73
2022/01/23 11:34:53;;;;;;;;;;;18.20;44.40;;;;;;5083742;27;44335;-73
2022/01/23 11:37:19;;;;;;;;;;;17.80;39.90;;;;;;5083372;28;42963;-74
2022/01/23 11:39:50;;;;;;;;;;;17.70;40.30;;;;;;5084184;28;44550;-75
2022/01/23 11:51:02;;;;;;;;;;;17.80;37.80;;;;;;5085373;28;42909;-75
2022/01/23 11:56:24;;;;;;;;;;;17.50;38.50;;;;;;5084493;28;43070;-74
2022/01/23 11:59:08;;;;;;;;;;;17.30;38.60;;;;;;5084831;27;43003;-78
2022/01/23 12:01:34;;;;;;;;;;;17.40;38.80;;;;;;5084534;27;43968;-73
2022/01/23 12:04:06;;;;;;;;;;;17.40;38.60;;;;;;5084920;28;43156;-73
2022/01/23 12:06:31;;;;;;;;;;;17.40;38.70;;;;;;5083024;27;44682;-73
2022/01/23 12:09:09;;;;;;;;;;;17.40;39.20;;;;;;5083740;27;42971;-73
2022/01/23 12:11:39;;;;;;;;;;;17.00;38.60;;;;;;5081297;28;43506;-75
2022/01/23 12:17:05;;;;;;;;;;;16.20;39.00;;;;;;5084135;27;43386;-74
2022/01/23 12:19:32;;;;;;;;;;;16.00;39.60;;;;;;5084623;28;42921;-72
2022/01/23 12:21:59;;;;;;;;;;;16.10;39.80;;;;;;5084621;27;43809;-75
2022/01/23 12:24:26;;;;;;;;;;;16.30;39.70;;;;;;5083514;27;43419;-74
2022/01/23 12:27:11;;;;;;;;;;;16.70;39.60;;;;;;5082985;28;44061;-74
2022/01/23 12:29:37;;;;;;;;;;;16.90;39.30;;;;;;5083300;28;43139;-71
2022/01/23 12:32:19;;;;;;;;;;;17.20;40.10;;;;;;5084155;27;43797;-73
2022/01/23 12:34:49;;;;;;;;;;;17.30;39.60;;;;;;5085483;27;42802;-74
2022/01/23 12:37:15;;;;;;;;;;;17.40;39.70;;;;;;5084743;28;42917;-73
2022/01/23 12:39:40;;;;;;;;;;;17.50;39.70;;;;;;5085768;28;43014;-74
2022/01/23 12:42:06;;;;;;;;;;;17.60;39.80;;;;;;5085830;27;42896;-73
2022/01/23 12:44:33;;;;;;;;;;;17.60;40.00;;;;;;5085490;27;42902;-73
2022/01/23 12:46:59;;;;;;;;;;;17.70;40.10;;;;;;5085537;27;42837;-73
2022/01/23 12:49:25;;;;;;;;;;;17.70;40.10;;;;;;5084633;27;43086;-73
2022/01/23 12:52:05;;;;;;;;;;;17.70;40.20;;;;;;5084659;27;43521;-73
2022/01/23 12:54:32;;;;;;;;;;;17.80;40.50;;;;;;5084515;27;42995;-73
2022/01/23 12:57:05;;;;;;;;;;;17.80;40.50;;;;;;5084234;28;43687;-74
2022/01/23 12:59:33;;;;;;;;;;;17.80;40.60;;;;;;5084803;27;42897;-75
2022/01/23 13:02:04;;;;;;;;;;;17.80;40.80;;;;;;5084298;27;42937;-73
2022/01/23 13:04:30;;;;;;;;;;;17.80;41.00;;;;;;5084505;27;42980;-73
2022/01/23 13:07:00;;;;;;;;;;;17.90;41.20;;;;;;5084401;27;43077;-73
2022/01/23 13:09:53;;;;;;;;;;;17.80;41.20;;;;;;5085215;27;42936;-74
2022/01/23 13:15:44;;;;;;;;;;;17.90;41.50;;;;;;5084929;27;42790;-73
2022/01/23 13:31:35;;;;;;;;;;;18.00;42.20;;;;;;5088510;27;42888;-73
2022/01/23 13:34:00;;;;;;;;;;;18.00;42.30;;;;;;5088083;28;43619;-73
2022/01/23 13:36:26;;;;;;;;;;;18.00;42.30;;;;;;5088964;27;42798;-73
2022/01/23 13:38:55;;;;;;;;;;;18.00;42.30;;;;;;5088115;28;43059;-73
2022/01/23 13:41:35;;;;;;;;;;;18.00;42.30;;;;;;5088788;27;42922;-72
2022/01/23 13:52:35;;;;;;;;;;;18.10;42.70;;;;;;5087862;28;43675;-74
2022/01/23 13:58:06;;;;;;;;;;;18.10;42.80;;;;;;5088046;28;42971;-73
2022/01/23 14:00:31;;;;;;;;;;;18.10;42.90;;;;;;5087443;27;42749;-73
2022/01/23 14:02:57;;;;;;;;;;;18.10;42.80;;;;;;5087976;27;43020;-74
2022/01/23 14:05:30;;;;;;;;;;;18.10;42.90;;;;;;5087533;27;42969;-73
2022/01/23 14:07:57;;;;;;;;;;;18.10;42.90;;;;;;5088435;27;43286;-77
2022/01/23 14:10:30;;;;;;;;;;;18.20;43.00;;;;;;5088384;27;43367;-73
2022/01/23 14:13:15;;;;;;;;;;;18.10;43.00;;;;;;5088755;28;42896;-73
2022/01/23 14:15:44;;;;;;;;;;;18.20;43.10;;;;;;5086741;28;45045;-73
2022/01/23 14:18:11;;;;;;;;;;;18.20;43.10;;;;;;5087822;27;42796;-72
2022/01/23 14:20:41;;;;;;;;;;;18.20;43.20;;;;;;5087556;28;42878;-73
2022/01/23 14:23:18;;;;;;;;;;;18.20;43.10;;;;;;5087610;27;42767;-73
2022/01/23 14:25:45;;;;;;;;;;;18.20;43.20;;;;;;5087001;27;44352;-73
2022/01/23 14:28:13;;;;;;;;;;;18.20;43.20;;;;;;5088072;28;42988;-73
2022/01/23 14:30:44;;;;;;;;;;;18.20;43.20;;;;;;5088428;27;42949;-75
2022/01/23 14:33:15;;;;;;;;;;;18.20;43.20;;;;;;5088042;27;42797;-73
2022/01/23 14:35:41;;;;;;;;;;;18.20;43.30;;;;;;5086349;28;43817;-74
2022/01/23 14:38:07;;;;;;;;;;;18.20;43.30;;;;;;5087296;27;42893;-73
2022/01/23 14:40:33;;;;;;;;;;;18.20;43.30;;;;;;5087958;27;43657;-72
2022/01/23 14:43:03;;;;;;;;;;;18.20;43.40;;;;;;5087048;27;43010;-74
2022/01/23 14:45:31;;;;;;;;;;;18.20;43.30;;;;;;5073747;27;42909;-75
2022/01/23 14:47:57;;;;;;;;;;;18.20;43.20;;;;;;5087258;28;42871;-75
2022/01/23 14:50:25;;;;;;;;;;;18.20;43.20;;;;;;5086438;27;43087;-75
2022/01/23 14:52:50;;;;;;;;;;;18.10;40.70;;;;;;5085192;27;42960;-74
2022/01/23 14:55:16;;;;;;;;;;;18.00;40.40;;;;;;5081158;28;43179;-75
2022/01/23 14:57:44;;;;;;;;;;;17.90;40.00;;;;;;5084167;27;43034;-74
2022/01/23 15:00:10;;;;;;;;;;;17.80;40.00;;;;;;5084337;28;43809;-73
2022/01/23 15:02:36;;;;;;;;;;;17.80;40.00;;;;;;5080293;27;43170;-74
2022/01/23 15:05:03;;;;;;;;;;;17.70;39.90;;;;;;5083373;28;43945;-73
2022/01/23 15:07:36;;;;;;;;;;;17.60;40.90;;;;;;5084721;27;42814;-73
2022/01/23 15:10:03;;;;;;;;;;;17.80;40.90;;;;;;5085698;27;43415;-74
2022/01/23 15:12:28;;;;;;;;;;;15.20;41.10;;;;;;5079518;27;43997;-76
2022/01/23 15:14:54;;;;;;;;;;;17.90;43.10;;;;;;5083019;28;43073;-75
2022/01/23 15:17:20;;;;;;;;;;;18.40;44.30;;;;;;5077192;28;42995;-74
2022/01/23 15:19:46;;;;;;;;;;;18.10;44.20;;;;;;5077878;27;44167;-75
2022/01/23 15:22:12;;;;;;;;;;;18.10;44.50;;;;;;5077278;28;43432;-75
2022/01/23 15:24:38;;;;;;;;;;;18.10;44.90;;;;;;5076215;27;42963;-75
2022/01/23 15:27:04;;;;;;;;;;;18.10;45.50;;;;;;5074969;28;42857;-76
2022/01/23 15:29:29;;;;;;;;;;;18.10;45.60;;;;;;5076713;28;43868;-74
2022/01/23 15:31:55;;;;;;;;;;;18.20;46.10;;;;;;5077019;28;42984;-75
2022/01/23 15:34:20;;;;;;;;;;;18.20;46.40;;;;;;5077211;28;44690;-76
2022/01/23 15:36:47;;;;;;;;;;;18.20;46.20;;;;;;5079309;28;43434;-76
2022/01/23 15:39:12;;;;;;;;;;;18.20;46.40;;;;;;5077097;28;43301;-75
2022/01/23 15:41:38;;;;;;;;;;;18.20;46.30;;;;;;5076783;28;43056;-76
2022/01/23 15:44:04;;;;;;;;;;;18.20;46.90;;;;;;5078032;28;42936;-75
2022/01/23 15:46:30;;;;;;;;;;;18.20;46.70;;;;;;5076867;28;43031;-78
2022/01/23 15:48:55;;;;;;;;;;;18.20;47.40;;;;;;5076873;27;43023;-78
2022/01/23 15:51:21;;;;;;;;;;;18.20;47.50;;;;;;5082446;27;42971;-74
2022/01/23 15:53:46;;;;;;;;;;;18.20;47.20;;;;;;5083342;27;44936;-74
2022/01/23 15:56:12;;;;;;;;;;;18.30;47.60;;;;;;5077215;28;43023;-76
2022/01/23 15:58:40;;;;;;;;;;;18.30;47.70;;;;;;5081068;28;43110;-74
2022/01/23 16:01:06;;;;;;;;;;;18.30;47.10;;;;;;5077329;28;42950;-76
2022/01/23 16:03:31;;;;;;;;;;;18.20;47.20;;;;;;5078756;28;42951;-78
2022/01/23 16:05:57;;;;;;;;;;;18.30;47.30;;;;;;5075539;27;43024;-78
2022/01/23 16:08:23;;;;;;;;;;;18.30;47.30;;;;;;5081686;27;45623;-74
2022/01/23 16:10:49;;;;;;;;;;;18.20;47.30;;;;;;5079067;27;42947;-75
2022/01/23 16:13:14;;;;;;;;;;;17.90;47.90;;;;;;5074981;28;43036;-78
2022/01/23 16:15:43;;;;;;;;;;;18.30;47.80;;;;;;5073674;27;43629;-74
2022/01/23 16:18:10;;;;;;;;;;;18.40;48.20;;;;;;5075623;28;44338;-75
2022/01/23 16:20:37;;;;;;;;;;;18.40;47.80;;;;;;5074792;27;42933;-75
2022/01/23 16:23:03;;;;;;;;;;;18.30;47.00;;;;;;5076342;27;43062;-74
2022/01/23 16:25:29;;;;;;;;;;;18.30;47.30;;;;;;5076207;28;42975;-77
2022/01/23 16:27:54;;;;;;;;;;;18.30;46.70;;;;;;5077932;28;42951;-75
2022/01/23 16:30:21;;;;;;;;;;;18.30;46.80;;;;;;5075621;28;42885;-76
2022/01/23 16:32:46;;;;;;;;;;;18.30;47.20;;;;;;5083819;27;43298;-76
2022/01/23 16:35:14;;;;;;;;;;;18.30;47.60;;;;;;5077502;27;43054;-75
2022/01/23 16:37:40;;;;;;;;;;;18.30;46.90;;;;;;5074496;27;44543;-76
2022/01/23 16:40:06;;;;;;;;;;;18.30;47.60;;;;;;5075632;27;42933;-77
2022/01/23 16:42:31;;;;;;;;;;;18.30;47.60;;;;;;5075715;27;42994;-78
2022/01/23 16:44:57;;;;;;;;;;;18.30;48.10;;;;;;5075283;28;43309;-76
2022/01/23 16:47:22;;;;;;;;;;;18.40;48.20;;;;;;5075500;28;43036;-75
2022/01/23 16:49:48;;;;;;;;;;;18.30;48.00;;;;;;5078415;28;43145;-76
2022/01/23 16:52:13;;;;;;;;;;;18.30;47.90;;;;;;5075789;27;43642;-76
2022/01/23 16:54:39;;;;;;;;;;;18.30;48.20;;;;;;5075214;28;43076;-77
2022/01/23 16:57:05;;;;;;;;;;;18.30;48.10;;;;;;5073305;27;43000;-76
2022/01/23 16:59:31;;;;;;;;;;;18.40;48.10;;;;;;5077901;28;43073;-77
2022/01/23 17:01:58;;;;;;;;;;;18.40;48.20;;;;;;5075922;27;42923;-77
2022/01/23 17:04:23;;;;;;;;;;;18.30;48.10;;;;;;5077034;27;42986;-75
2022/01/23 17:06:49;;;;;;;;;;;18.30;48.10;;;;;;5073272;27;43626;-77
2022/01/23 17:09:14;;;;;;;;;;;18.40;48.10;;;;;;5078023;27;43682;-76
2022/01/23 17:11:40;;;;;;;;;;;18.30;48.10;;;;;;5076931;27;42919;-77
2022/01/23 17:14:06;;;;;;;;;;;18.30;48.10;;;;;;5077574;28;42935;-76
2022/01/23 17:16:31;;;;;;;;;;;18.40;48.10;;;;;;5074872;28;43013;-78
2022/01/23 17:18:57;;;;;;;;;;;18.30;48.00;;;;;;5074677;28;42907;-76
2022/01/23 17:21:23;;;;;;;;;;;18.30;48.00;;;;;;5074716;28;43027;-77
2022/01/23 17:23:50;;;;;;;;;;;18.30;48.00;;;;;;5079617;27;42963;-76
2022/01/23 17:26:17;;;;;;;;;;;22.30;50.20;;;;;;5072866;27;43426;-76
2022/01/23 17:28:42;;;;;;;;;;;18.30;47.80;;;;;;5077099;28;42876;-76
2022/01/23 17:31:08;;;;;;;;;;;18.30;47.80;;;;;;5078016;27;43050;-77
2022/01/23 17:33:33;;;;;;;;;;;18.30;47.80;;;;;;5079695;28;43077;-76
2022/01/23 17:35:59;;;;;;;;;;;18.30;47.70;;;;;;5083359;28;43450;-76
2022/01/23 17:38:24;;;;;;;;;;;18.30;47.80;;;;;;5078882;28;43026;-82
2022/01/23 17:40:50;;;;;;;;;;;18.30;47.70;;;;;;5076468;27;43480;-76
2022/01/23 17:43:16;;;;;;;;;;;18.30;47.80;;;;;;5077966;28;42975;-77
2022/01/23 17:45:51;;;;;;;;;;;18.30;47.60;;;;;;5083459;27;43829;-77